Home > Products > Valid Products > TAF

000
FTUS42 KMFL 280001 AAA
TAFMIA
TAF AMD
KMIA 280001Z 2800/2824 11009KT P6SM FEW035
     FM280500 VRB03KT P6SM SCT250
     FM281500 14007KT P6SM VCSH SCT035=



000
FTUS42 KMFL 280001 AAA
TAFMIA
TAF AMD
KMIA 280001Z 2800/2824 11009KT P6SM FEW035
     FM280500 VRB03KT P6SM SCT250
     FM281500 14007KT P6SM VCSH SCT035=



000
FTUS42 KMFL 280000 AAB
TAFAPF
TAF AMD
KAPF 280000Z 2800/2824 29007KT P6SM SCT060
     FM280500 VRB04KT P6SM SCT250
     FM281500 12007KT P6SM VCSH SCT035
     FM282000 21006KT P6SM VCTS BKN040CB=



000
FTUS42 KMFL 280000 AAB
TAFAPF
TAF AMD
KAPF 280000Z 2800/2824 29007KT P6SM SCT060
     FM280500 VRB04KT P6SM SCT250
     FM281500 12007KT P6SM VCSH SCT035
     FM282000 21006KT P6SM VCTS BKN040CB=



000
FTUS42 KMFL 272359 AAA
TAFAPF
TAF AMD
KAPF 272359Z 2800/2824 29007KT P6SM SCT060
     FM280500 VRB04KT P6SM SCT250
     FM281500 12007KT P6SM VCSH SCT035
     FM282000 21006KT P6SM TSRA BKN040CB=



000
FTUS42 KMFL 272359 AAA
TAFAPF
TAF AMD
KAPF 272359Z 2800/2824 29007KT P6SM SCT060
     FM280500 VRB04KT P6SM SCT250
     FM281500 12007KT P6SM VCSH SCT035
     FM282000 21006KT P6SM TSRA BKN040CB=



000
FTUS42 KMFL 272342
TAFPBI
TAF
KPBI 272342Z 2800/2824 08009KT P6SM SCT035 SCT050
     FM280500 12005KT P6SM SCT250
     FM281500 08008KT P6SM SCT035=



000
FTUS42 KMFL 272342
TAFFLL
TAF
KFLL 272342Z 2800/2824 08011KT P6SM FEW035
     FM280500 13005KT P6SM SCT250
     FM281500 10007KT P6SM SCT035=



000
FTUS42 KMFL 272342
TAFMIA
TAF
KMIA 272342Z 2800/2824 08012KT P6SM FEW040 FEW150 SCT300
     FM280500 VRB03KT P6SM SCT250
     FM281500 14007KT P6SM VCSH SCT035=



000
FTUS42 KMFL 272342
TAFAPF
TAF
KAPF 272342Z 2800/2824 29007KT P6SM SCT060
     FM280500 VRB04KT P6SM SCT250
     FM281500 12007KT P6SM VCSH SCT035=



000
FTUS42 KMFL 272342
TAFMIA
TAF
KMIA 272342Z 2800/2824 08012KT P6SM FEW040 FEW150 SCT300
     FM280500 VRB03KT P6SM SCT250
     FM281500 14007KT P6SM VCSH SCT035=



000
FTUS42 KMFL 272342
TAFAPF
TAF
KAPF 272342Z 2800/2824 29007KT P6SM SCT060
     FM280500 VRB04KT P6SM SCT250
     FM281500 12007KT P6SM VCSH SCT035=



000
FTUS42 KMFL 272342
TAFFLL
TAF
KFLL 272342Z 2800/2824 08011KT P6SM FEW035
     FM280500 13005KT P6SM SCT250
     FM281500 10007KT P6SM SCT035=



000
FTUS42 KMFL 272342
TAFPBI
TAF
KPBI 272342Z 2800/2824 08009KT P6SM SCT035 SCT050
     FM280500 12005KT P6SM SCT250
     FM281500 08008KT P6SM SCT035=



000
FTUS42 KMFL 272112 AAB
TAFAPF
TAF AMD
KAPF 272112Z 2721/2818 29007KT P6SM SCT060
     FM280100 VRB04KT P6SM SCT250
     FM281500 12007KT P6SM VCSH SCT035=



000
FTUS42 KMFL 272112 AAA
TAFFLL
TAF AMD
KFLL 272112Z 2721/2818 08011KT P6SM FEW035
     FM280300 13005KT P6SM SCT250
     FM281500 10007KT P6SM SCT035=



000
FTUS42 KMFL 272112 AAA
TAFMIA
TAF AMD
KMIA 272112Z 2721/2818 08012KT P6SM FEW040 FEW150 SCT300
     FM280400 VRB03KT P6SM SCT250
     FM281500 14007KT P6SM VCSH SCT035=



000
FTUS42 KMFL 272112 AAA
TAFFLL
TAF AMD
KFLL 272112Z 2721/2818 08011KT P6SM FEW035
     FM280300 13005KT P6SM SCT250
     FM281500 10007KT P6SM SCT035=



000
FTUS42 KMFL 272112 AAA
TAFMIA
TAF AMD
KMIA 272112Z 2721/2818 08012KT P6SM FEW040 FEW150 SCT300
     FM280400 VRB03KT P6SM SCT250
     FM281500 14007KT P6SM VCSH SCT035=



000
FTUS42 KMFL 272112 AAA
TAFPBI
TAF AMD
KPBI 272112Z 2721/2818 08009KT P6SM SCT035 SCT050
     FM280300 12005KT P6SM SCT250
     FM281500 08008KT P6SM SCT035=



000
FTUS42 KMFL 272112 AAA
TAFPBI
TAF AMD
KPBI 272112Z 2721/2818 08009KT P6SM SCT035 SCT050
     FM280300 12005KT P6SM SCT250
     FM281500 08008KT P6SM SCT035=



000
FTUS42 KMFL 272112 AAB
TAFAPF
TAF AMD
KAPF 272112Z 2721/2818 29007KT P6SM SCT060
     FM280100 VRB04KT P6SM SCT250
     FM281500 12007KT P6SM VCSH SCT035=



000
FTUS42 KMFL 271749 AAA
TAFAPF
TAF AMD
KAPF 271749Z 2718/2818 08010KT P6SM SCT035
     FM272100 25007KT P6SM SCT035
     FM280100 VRB04KT P6SM SCT250
     FM281500 12007KT P6SM VCSH SCT035=



000
FTUS42 KMFL 271749 AAA
TAFAPF
TAF AMD
KAPF 271749Z 2718/2818 08010KT P6SM SCT035
     FM272100 25007KT P6SM SCT035
     FM280100 VRB04KT P6SM SCT250
     FM281500 12007KT P6SM VCSH SCT035=



000
FTUS42 KMFL 271738
TAFMIA
TAF
KMIA 271738Z 2718/2818 08010KT P6SM SCT035
     FM280400 VRB03KT P6SM SCT250
     FM281500 14007KT P6SM VCSH SCT035=



000
FTUS42 KMFL 271738
TAFPBI
TAF
KPBI 271738Z 2718/2818 05010KT P6SM SCT035
     FM280300 12005KT P6SM SCT250
     FM281500 08008KT P6SM SCT035=



000
FTUS42 KMFL 271738
TAFAPF
TAF
KAPF 271738Z 2718/2818 08010KT P6SM SCT035
     FM272100 25007KT P6SM SCT035
     FM280100 VRB04KT P6SM SCT250
     FM281500 12007KT P6SM SCT035=



000
FTUS42 KMFL 271738
TAFFLL
TAF
KFLL 271738Z 2718/2818 06010KT P6SM SCT035
     FM280300 13005KT P6SM SCT250
     FM281500 10007KT P6SM SCT035=



000
FTUS42 KMFL 271738
TAFAPF
TAF
KAPF 271738Z 2718/2818 08010KT P6SM SCT035
     FM272100 25007KT P6SM SCT035
     FM280100 VRB04KT P6SM SCT250
     FM281500 12007KT P6SM SCT035=



000
FTUS42 KMFL 271738
TAFPBI
TAF
KPBI 271738Z 2718/2818 05010KT P6SM SCT035
     FM280300 12005KT P6SM SCT250
     FM281500 08008KT P6SM SCT035=



000
FTUS42 KMFL 271738
TAFFLL
TAF
KFLL 271738Z 2718/2818 06010KT P6SM SCT035
     FM280300 13005KT P6SM SCT250
     FM281500 10007KT P6SM SCT035=



000
FTUS42 KMFL 271738
TAFMIA
TAF
KMIA 271738Z 2718/2818 08010KT P6SM SCT035
     FM280400 VRB03KT P6SM SCT250
     FM281500 14007KT P6SM VCSH SCT035=



000
FTUS42 KMFL 271512 AAA
TAFAPF
TAF AMD
KAPF 271512Z 2715/2812 07008KT P6SM FEW040
     FM271700 26009KT P6SM SCT035
     FM272100 28008KT P6SM VCSH SCT035 BKN060
     FM280100 08004KT P6SM SKC=



000
FTUS42 KMFL 271512 AAA
TAFAPF
TAF AMD
KAPF 271512Z 2715/2812 07008KT P6SM FEW040
     FM271700 26009KT P6SM SCT035
     FM272100 28008KT P6SM VCSH SCT035 BKN060
     FM280100 08004KT P6SM SKC=



000
FTUS42 KMFL 271511 AAA
TAFMIA
TAF AMD
KMIA 271511Z 2715/2812 06008KT P6SM SCT035
     FM280200 VRB03KT P6SM SCT250=



000
FTUS42 KMFL 271511 AAA
TAFMIA
TAF AMD
KMIA 271511Z 2715/2812 06008KT P6SM SCT035
     FM280200 VRB03KT P6SM SCT250=



000
FTUS42 KMFL 271510 AAA
TAFFLL
TAF AMD
KFLL 271510Z 2715/2812 06010KT P6SM SCT035
     FM280200 08004KT P6SM SCT250=



000
FTUS42 KMFL 271509 AAA
TAFPBI
TAF AMD
KPBI 271509Z 2715/2812 07010KT P6SM SCT035
     FM280200 10005KT P6SM SCT250=



000
FTUS42 KMFL 271139
TAFPBI
TAF
KPBI 271139Z 2712/2812 34004KT P6SM FEW035
     FM271500 07010KT P6SM SCT035
     FM280200 10005KT P6SM SCT250=



000
FTUS42 KMFL 271139
TAFMIA
TAF
KMIA 271139Z 2712/2812 35004KT P6SM FEW035
     FM271500 08010KT P6SM SCT035
     FM280200 VRB03KT P6SM SCT250=



000
FTUS42 KMFL 271139
TAFAPF
TAF
KAPF 271139Z 2712/2812 03006KT P6SM SKC
     FM271700 26009KT P6SM SCT035
     FM272100 28008KT P6SM VCSH SCT035 BKN060
     FM280100 08004KT P6SM SKC=



000
FTUS42 KMFL 271139
TAFFLL
TAF
KFLL 271139Z 2712/2812 35004KT P6SM SCT035
     FM271500 11010KT P6SM SCT035
     FM280200 08004KT P6SM SCT250=



000
FTUS42 KMFL 271139
TAFMIA
TAF
KMIA 271139Z 2712/2812 35004KT P6SM FEW035
     FM271500 08010KT P6SM SCT035
     FM280200 VRB03KT P6SM SCT250=



000
FTUS42 KMFL 271139
TAFAPF
TAF
KAPF 271139Z 2712/2812 03006KT P6SM SKC
     FM271700 26009KT P6SM SCT035
     FM272100 28008KT P6SM VCSH SCT035 BKN060
     FM280100 08004KT P6SM SKC=



000
FTUS42 KMFL 271139
TAFFLL
TAF
KFLL 271139Z 2712/2812 35004KT P6SM SCT035
     FM271500 11010KT P6SM SCT035
     FM280200 08004KT P6SM SCT250=



000
FTUS42 KMFL 271139
TAFPBI
TAF
KPBI 271139Z 2712/2812 34004KT P6SM FEW035
     FM271500 07010KT P6SM SCT035
     FM280200 10005KT P6SM SCT250=



000
FTUS42 KMFL 270915 AAA
TAFAPF
TAF AMD
KAPF 270915Z 2709/2806 06006KT P6SM SKC
     FM271800 26008KT P6SM VCSH SCT040 SCT250
     FM280100 09004KT P6SM FEW040=



000
FTUS42 KMFL 270915 AAA
TAFAPF
TAF AMD
KAPF 270915Z 2709/2806 06006KT P6SM SKC
     FM271800 26008KT P6SM VCSH SCT040 SCT250
     FM280100 09004KT P6SM FEW040=



000
FTUS42 KMFL 270911 AAA
TAFPBI
TAF AMD
KPBI 270911Z 2709/2806 03005KT P6SM FEW040
     FM271600 07010KT P6SM SCT035=



000
FTUS42 KMFL 270911 AAA
TAFPBI
TAF AMD
KPBI 270911Z 2709/2806 03005KT P6SM FEW040
     FM271600 07010KT P6SM SCT035=



000
FTUS42 KMFL 270910 AAA
TAFFLL
TAF AMD
KFLL 270910Z 2709/2806 33004KT P6SM SCT035
     FM271200 04006KT P6SM SCT035
     FM271600 08010KT P6SM SCT035=



000
FTUS42 KMFL 270910 AAA
TAFFLL
TAF AMD
KFLL 270910Z 2709/2806 33004KT P6SM SCT035
     FM271200 04006KT P6SM SCT035
     FM271600 08010KT P6SM SCT035=



000
FTUS42 KMFL 270909 AAA
TAFMIA
TAF AMD
KMIA 270909Z 2709/2806 36003KT P6SM SCT040
     FM271200 03004KT P6SM SCT035
     FM271600 08008KT P6SM SCT040=



000
FTUS42 KMFL 270528
TAFAPF
TAF
KAPF 270528Z 2706/2806 04006KT P6SM SKC
     FM271800 26008KT P6SM VCSH SCT040 SCT250
     FM280100 09004KT P6SM FEW040=



000
FTUS42 KMFL 270528
TAFFLL
TAF
KFLL 270528Z 2706/2806 04006KT P6SM SCT035
     FM271600 08010KT P6SM SCT035=



000
FTUS42 KMFL 270528
TAFMIA
TAF
KMIA 270528Z 2706/2806 03004KT P6SM FEW035
     FM271600 08008KT P6SM SCT040=



000
FTUS42 KMFL 270528
TAFPBI
TAF
KPBI 270528Z 2706/2806 04006KT P6SM FEW040
     FM271600 07010KT P6SM SCT035=



000
FTUS42 KMFL 270528
TAFFLL
TAF
KFLL 270528Z 2706/2806 04006KT P6SM SCT035
     FM271600 08010KT P6SM SCT035=



000
FTUS42 KMFL 270528
TAFPBI
TAF
KPBI 270528Z 2706/2806 04006KT P6SM FEW040
     FM271600 07010KT P6SM SCT035=



000
FTUS42 KMFL 270528
TAFAPF
TAF
KAPF 270528Z 2706/2806 04006KT P6SM SKC
     FM271800 26008KT P6SM VCSH SCT040 SCT250
     FM280100 09004KT P6SM FEW040=



000
FTUS42 KMFL 270528
TAFMIA
TAF
KMIA 270528Z 2706/2806 03004KT P6SM FEW035
     FM271600 08008KT P6SM SCT040=



000
FTUS42 KMFL 270153 AAA
TAFFLL
TAF AMD
KFLL 270153Z 2702/2724 03008KT P6SM SCT035
     FM270500 06006KT P6SM SCT030
     FM271600 05010G15KT P6SM SCT035=



000
FTUS42 KMFL 270153 AAA
TAFAPF
TAF AMD
KAPF 270153Z 2702/2724 06005KT P6SM FEW025
     FM270500 06006KT P6SM SCT030 SCT250
     FM271800 26008KT P6SM VCTS SCT040CB SCT250=



000
FTUS42 KMFL 270153 AAA
TAFPBI
TAF AMD
KPBI 270153Z 2702/2724 03012KT P6SM SCT035 BKN060
     FM270400 06008KT P6SM SCT030 SCT250
     FM271600 07010G15KT P6SM SCT035 SCT250=



000
FTUS42 KMFL 270153 AAA
TAFPBI
TAF AMD
KPBI 270153Z 2702/2724 03012KT P6SM SCT035 BKN060
     FM270400 06008KT P6SM SCT030 SCT250
     FM271600 07010G15KT P6SM SCT035 SCT250=



000
FTUS42 KMFL 270153 AAA
TAFMIA
TAF AMD
KMIA 270153Z 2702/2724 04008KT P6SM FEW028
     FM270500 06006KT P6SM SCT030
     FM271600 09008G13KT P6SM SCT040=



000
FTUS42 KMFL 262341
TAFFLL
TAF
KFLL 262341Z 2700/2724 05008KT P6SM SCT035
     FM270500 06006KT P6SM SCT030
     FM271600 05010G15KT P6SM SCT035=



000
FTUS42 KMFL 262341
TAFPBI
TAF
KPBI 262341Z 2700/2724 03011G18KT P6SM SCT035 BKN045
     FM270400 06008KT P6SM SCT030 SCT250
     FM271600 07010G15KT P6SM SCT035 SCT250=



000
FTUS42 KMFL 262341
TAFFLL
TAF
KFLL 262341Z 2700/2724 05008KT P6SM SCT035
     FM270500 06006KT P6SM SCT030
     FM271600 05010G15KT P6SM SCT035=



000
FTUS42 KMFL 262341
TAFPBI
TAF
KPBI 262341Z 2700/2724 03011G18KT P6SM SCT035 BKN045
     FM270400 06008KT P6SM SCT030 SCT250
     FM271600 07010G15KT P6SM SCT035 SCT250=



000
FTUS42 KMFL 262341
TAFAPF
TAF
KAPF 262341Z 2700/2724 06011KT P6SM FEW030
     FM270500 06006KT P6SM SCT030 SCT250
     FM271800 26008KT P6SM VCTS SCT040CB SCT250=



000
FTUS42 KMFL 262341
TAFMIA
TAF
KMIA 262341Z 2700/2724 05010KT P6SM SCT040
     FM270500 06006KT P6SM SCT030
     FM271600 09008G13KT P6SM SCT040=



000
FTUS42 KMFL 262341
TAFMIA
TAF
KMIA 262341Z 2700/2724 05010KT P6SM SCT040
     FM270500 06006KT P6SM SCT030
     FM271600 09008G13KT P6SM SCT040=



000
FTUS42 KMFL 262341
TAFAPF
TAF
KAPF 262341Z 2700/2724 06011KT P6SM FEW030
     FM270500 06006KT P6SM SCT030 SCT250
     FM271800 26008KT P6SM VCTS SCT040CB SCT250=



000
FTUS42 KMFL 262123 AAB
TAFAPF
TAF AMD
KAPF 262123Z 2621/2718 06014KT P6SM FEW060
     FM270100 06006KT P6SM SCT030 SCT250=



000
FTUS42 KMFL 262123 AAC
TAFMIA
TAF AMD
KMIA 262123Z 2621/2718 07014KT P6SM BKN040
     FM270100 06010KT P6SM SCT030 SCT250
     FM270500 02005KT P6SM FEW030 SCT250=



000
FTUS42 KMFL 262123 AAB
TAFAPF
TAF AMD
KAPF 262123Z 2621/2718 06014KT P6SM FEW060
     FM270100 06006KT P6SM SCT030 SCT250=



000
FTUS42 KMFL 262123 AAB
TAFFLL
TAF AMD
KFLL 262123Z 2621/2718 07014G21KT P6SM FEW035 FEW250
     FM270100 06010KT P6SM SCT030 SCT250
     FM270500 02006KT P6SM FEW030 SCT250=



000
FTUS42 KMFL 262123 AAC
TAFMIA
TAF AMD
KMIA 262123Z 2621/2718 07014KT P6SM BKN040
     FM270100 06010KT P6SM SCT030 SCT250
     FM270500 02005KT P6SM FEW030 SCT250=



000
FTUS42 KMFL 262123 AAB
TAFPBI
TAF AMD
KPBI 262123Z 2621/2718 03013KT P6SM SCT035 BKN045
     FM270100 06010KT P6SM SCT030 SCT250
     FM270500 05006KT P6SM FEW030 SCT250=



000
FTUS42 KMFL 262123 AAB
TAFFLL
TAF AMD
KFLL 262123Z 2621/2718 07014G21KT P6SM FEW035 FEW250
     FM270100 06010KT P6SM SCT030 SCT250
     FM270500 02006KT P6SM FEW030 SCT250=



000
FTUS42 KMFL 262123 AAB
TAFPBI
TAF AMD
KPBI 262123Z 2621/2718 03013KT P6SM SCT035 BKN045
     FM270100 06010KT P6SM SCT030 SCT250
     FM270500 05006KT P6SM FEW030 SCT250=



000
FTUS42 KMFL 261933 AAA
TAFPBI
TAF AMD
KPBI 261933Z 2620/2718 05015G22KT P6SM SCT040 SCT050 SCT250
     FM270100 06010KT P6SM SCT030 SCT250
     FM270500 05006KT P6SM FEW030 SCT250=



000
FTUS42 KMFL 261933 AAA
TAFFLL
TAF AMD
KFLL 261933Z 2620/2718 04014G22KT P6SM SCT035
     FM270100 06010KT P6SM SCT030 SCT250
     FM270500 02006KT P6SM FEW030 SCT250=



000
FTUS42 KMFL 261933 AAA
TAFAPF
TAF AMD
KAPF 261933Z 2620/2718 08014KT P6SM SCT050
     FM270100 06006KT P6SM SCT030 SCT250=



000
FTUS42 KMFL 261933 AAA
TAFAPF
TAF AMD
KAPF 261933Z 2620/2718 08014KT P6SM SCT050
     FM270100 06006KT P6SM SCT030 SCT250=



000
FTUS42 KMFL 261933 AAA
TAFPBI
TAF AMD
KPBI 261933Z 2620/2718 05015G22KT P6SM SCT040 SCT050 SCT250
     FM270100 06010KT P6SM SCT030 SCT250
     FM270500 05006KT P6SM FEW030 SCT250=



000
FTUS42 KMFL 261933 AAB
TAFMIA
TAF AMD
KMIA 261933Z 2620/2718 08017G21KT P6SM SCT030
     FM270100 06010KT P6SM SCT030 SCT250
     FM270500 02005KT P6SM FEW030 SCT250=



000
FTUS42 KMFL 261933 AAA
TAFFLL
TAF AMD
KFLL 261933Z 2620/2718 04014G22KT P6SM SCT035
     FM270100 06010KT P6SM SCT030 SCT250
     FM270500 02006KT P6SM FEW030 SCT250=



000
FTUS42 KMFL 261933 AAB
TAFMIA
TAF AMD
KMIA 261933Z 2620/2718 08017G21KT P6SM SCT030
     FM270100 06010KT P6SM SCT030 SCT250
     FM270500 02005KT P6SM FEW030 SCT250=



000
FTUS42 KMFL 261814 AAA
TAFMIA
TAF AMD
KMIA 261814Z 2618/2718 07012G22KT P6SM VCSH SCT030 BKN050
     FM270100 06010KT P6SM SCT030 SCT250
     FM270500 02005KT P6SM FEW030 SCT250=



000
FTUS42 KMFL 261814 AAA
TAFMIA
TAF AMD
KMIA 261814Z 2618/2718 07012G22KT P6SM VCSH SCT030 BKN050
     FM270100 06010KT P6SM SCT030 SCT250
     FM270500 02005KT P6SM FEW030 SCT250=



000
FTUS42 KMFL 261735
TAFFLL
TAF
KFLL 261735Z 2618/2718 04012G22KT P6SM SCT035 SCT250
     FM270100 06010KT P6SM SCT030 SCT250
     FM270500 02006KT P6SM FEW030 SCT250=



000
FTUS42 KMFL 261735
TAFAPF
TAF
KAPF 261735Z 2618/2718 06010G20KT P6SM FEW050
     FM270100 06006KT P6SM SCT030 SCT250=



000
FTUS42 KMFL 261735
TAFMIA
TAF
KMIA 261735Z 2618/2718 06012G22KT P6SM SCT035 SCT250
     FM270100 06010KT P6SM SCT030 SCT250
     FM270500 02005KT P6SM FEW030 SCT250=



000
FTUS42 KMFL 261735
TAFPBI
TAF
KPBI 261735Z 2618/2718 05015G25KT P6SM SCT035 SCT250
     FM270100 06010KT P6SM SCT030 SCT250
     FM270500 05006KT P6SM FEW030 SCT250=



000
FTUS42 KMFL 261735
TAFPBI
TAF
KPBI 261735Z 2618/2718 05015G25KT P6SM SCT035 SCT250
     FM270100 06010KT P6SM SCT030 SCT250
     FM270500 05006KT P6SM FEW030 SCT250=



000
FTUS42 KMFL 261735
TAFMIA
TAF
KMIA 261735Z 2618/2718 06012G22KT P6SM SCT035 SCT250
     FM270100 06010KT P6SM SCT030 SCT250
     FM270500 02005KT P6SM FEW030 SCT250=



000
FTUS42 KMFL 261735
TAFFLL
TAF
KFLL 261735Z 2618/2718 04012G22KT P6SM SCT035 SCT250
     FM270100 06010KT P6SM SCT030 SCT250
     FM270500 02006KT P6SM FEW030 SCT250=



000
FTUS42 KMFL 261735
TAFAPF
TAF
KAPF 261735Z 2618/2718 06010G20KT P6SM FEW050
     FM270100 06006KT P6SM SCT030 SCT250=



000
FTUS42 KMFL 261509 AAA
TAFAPF
TAF AMD
KAPF 261509Z 2615/2712 06012G22KT P6SM SCT030 SCT250
     FM270100 06006KT P6SM SCT030 SCT250=



000
FTUS42 KMFL 261509 AAA
TAFAPF
TAF AMD
KAPF 261509Z 2615/2712 06012G22KT P6SM SCT030 SCT250
     FM270100 06006KT P6SM SCT030 SCT250=



000
FTUS42 KMFL 261507 AAA
TAFMIA
TAF AMD
KMIA 261507Z 2615/2712 06012G22KT P6SM VCSH SCT035 BKN050
     FM270100 06010KT P6SM SCT030 SCT250
     FM270500 05006KT P6SM FEW030 SCT250=



000
FTUS42 KMFL 261507 AAA
TAFMIA
TAF AMD
KMIA 261507Z 2615/2712 06012G22KT P6SM VCSH SCT035 BKN050
     FM270100 06010KT P6SM SCT030 SCT250
     FM270500 05006KT P6SM FEW030 SCT250=



000
FTUS42 KMFL 261506 AAA
TAFFLL
TAF AMD
KFLL 261506Z 2615/2712 05012G22KT P6SM SCT035 BKN070
     FM270100 06010KT P6SM SCT030 SCT250
     FM270600 05006KT P6SM FEW030 SCT250=



000
FTUS42 KMFL 261506 AAA
TAFFLL
TAF AMD
KFLL 261506Z 2615/2712 05012G22KT P6SM SCT035 BKN070
     FM270100 06010KT P6SM SCT030 SCT250
     FM270600 05006KT P6SM FEW030 SCT250=



000
FTUS42 KMFL 261505 AAA
TAFPBI
TAF AMD
KPBI 261505Z 2615/2712 05012G22KT P6SM SCT035 BKN060
     FM270100 06010KT P6SM SCT030 SCT250
     FM270500 05006KT P6SM FEW030 SCT250=



000
FTUS42 KMFL 261505 AAA
TAFPBI
TAF AMD
KPBI 261505Z 2615/2712 05012G22KT P6SM SCT035 BKN060
     FM270100 06010KT P6SM SCT030 SCT250
     FM270500 05006KT P6SM FEW030 SCT250=



000
FTUS42 KMFL 261140
TAFFLL
TAF
KFLL 261140Z 2612/2712 05012G22KT P6SM SCT035 BKN250
     FM270100 06010KT P6SM SCT030 SCT250
     FM270600 05006KT P6SM FEW030 SCT250=



000
FTUS42 KMFL 261140
TAFPBI
TAF
KPBI 261140Z 2612/2712 05012G22KT P6SM SCT035 BKN250
     FM270100 06010KT P6SM SCT030 SCT250
     FM270500 05006KT P6SM FEW030 SCT250=



000
FTUS42 KMFL 261140
TAFPBI
TAF
KPBI 261140Z 2612/2712 05012G22KT P6SM SCT035 BKN250
     FM270100 06010KT P6SM SCT030 SCT250
     FM270500 05006KT P6SM FEW030 SCT250=



000
FTUS42 KMFL 261140
TAFMIA
TAF
KMIA 261140Z 2612/2712 03006KT P6SM VCSH SCT035 BKN050
     FM261400 05012G22KT P6SM VCSH SCT035 BKN250
     FM270100 06010KT P6SM SCT030 SCT250
     FM270500 05006KT P6SM FEW030 SCT250=



000
FTUS42 KMFL 261140
TAFAPF
TAF
KAPF 261140Z 2612/2712 03008KT P6SM SCT100
     FM261500 04010G20KT P6SM SCT035 BKN250
     FM270100 06006KT P6SM SCT030 SCT250=



000
FTUS42 KMFL 261140
TAFMIA
TAF
KMIA 261140Z 2612/2712 03006KT P6SM VCSH SCT035 BKN050
     FM261400 05012G22KT P6SM VCSH SCT035 BKN250
     FM270100 06010KT P6SM SCT030 SCT250
     FM270500 05006KT P6SM FEW030 SCT250=



000
FTUS42 KMFL 261140
TAFAPF
TAF
KAPF 261140Z 2612/2712 03008KT P6SM SCT100
     FM261500 04010G20KT P6SM SCT035 BKN250
     FM270100 06006KT P6SM SCT030 SCT250=



000
FTUS42 KMFL 260846 AAA
TAFMIA
TAF AMD
KMIA 260846Z 2609/2706 04008KT P6SM FEW030 SCT050 BKN120
     FM261200 04008G16KT P6SM FEW030 SCT050 BKN200
     FM270000 06008KT P6SM SKC=



000
FTUS42 KMFL 260846 AAA
TAFFLL
TAF AMD
KFLL 260846Z 2609/2706 06013G20KT P6SM SCT045 BKN200
     FM270000 07010KT P6SM SKC=



000
FTUS42 KMFL 260846 AAA
TAFPBI
TAF AMD
KPBI 260846Z 2609/2706 05015G23KT P6SM BKN035 BKN200
     FM270100 06010KT P6SM SCT030 SCT250=



000
FTUS42 KMFL 260846 AAA
TAFAPF
TAF AMD
KAPF 260846Z 2609/2706 04007KT P6SM SCT150
     FM261400 06010G15KT P6SM SCT040 SCT250
     FM270000 06009KT P6SM SKC=



000
FTUS42 KMFL 260846 AAA
TAFAPF
TAF AMD
KAPF 260846Z 2609/2706 04007KT P6SM SCT150
     FM261400 06010G15KT P6SM SCT040 SCT250
     FM270000 06009KT P6SM SKC=



000
FTUS42 KMFL 260846 AAA
TAFFLL
TAF AMD
KFLL 260846Z 2609/2706 06013G20KT P6SM SCT045 BKN200
     FM270000 07010KT P6SM SKC=



000
FTUS42 KMFL 260846 AAA
TAFMIA
TAF AMD
KMIA 260846Z 2609/2706 04008KT P6SM FEW030 SCT050 BKN120
     FM261200 04008G16KT P6SM FEW030 SCT050 BKN200
     FM270000 06008KT P6SM SKC=



000
FTUS42 KMFL 260846 AAA
TAFPBI
TAF AMD
KPBI 260846Z 2609/2706 05015G23KT P6SM BKN035 BKN200
     FM270100 06010KT P6SM SCT030 SCT250=



000
FTUS42 KMFL 260520
TAFFLL
TAF
KFLL 260520Z 2606/2706 05010G20KT P6SM VCSH SCT025 SCT050 SCT120
     FM260800 06014G20KT P6SM SCT030 SCT250
     FM270000 07010KT P6SM SKC=



000
FTUS42 KMFL 260520
TAFPBI
TAF
KPBI 260520Z 2606/2706 05015G23KT P6SM BKN040 BKN120
     FM262000 06015KT P6SM SCT030 SCT250=



000
FTUS42 KMFL 260520
TAFMIA
TAF
KMIA 260520Z 2606/2706 04008KT P6SM VCSH FEW025 BKN050 BKN120
     FM260900 07012G20KT P6SM SCT030 SCT250
     FM270000 06008KT P6SM SKC=



000
FTUS42 KMFL 260520
TAFMIA
TAF
KMIA 260520Z 2606/2706 04008KT P6SM VCSH FEW025 BKN050 BKN120
     FM260900 07012G20KT P6SM SCT030 SCT250
     FM270000 06008KT P6SM SKC=



000
FTUS42 KMFL 260520
TAFPBI
TAF
KPBI 260520Z 2606/2706 05015G23KT P6SM BKN040 BKN120
     FM262000 06015KT P6SM SCT030 SCT250=



000
FTUS42 KMFL 260520
TAFFLL
TAF
KFLL 260520Z 2606/2706 05010G20KT P6SM VCSH SCT025 SCT050 SCT120
     FM260800 06014G20KT P6SM SCT030 SCT250
     FM270000 07010KT P6SM SKC=



000
FTUS42 KMFL 260520
TAFAPF
TAF
KAPF 260520Z 2606/2706 04007KT P6SM SCT150
     FM261400 06010G15KT P6SM SCT040 SCT250
     FM270000 06009KT P6SM SKC=



000
FTUS42 KMFL 260520
TAFAPF
TAF
KAPF 260520Z 2606/2706 04007KT P6SM SCT150
     FM261400 06010G15KT P6SM SCT040 SCT250
     FM270000 06009KT P6SM SKC=



000
FTUS42 KMFL 260300 AAA
TAFAPF
TAF AMD
KAPF 260300Z 2603/2624 05007KT P6SM SCT250
     FM261400 06010G15KT P6SM SCT040 SCT250=



000
FTUS42 KMFL 260300 AAA
TAFPBI
TAF AMD
KPBI 260300Z 2603/2624 05014G22KT P6SM FEW025 BKN050 BKN200
     FM261300 06015G23KT P6SM SCT030 SCT250=



000
FTUS42 KMFL 260300 AAA
TAFMIA
TAF AMD
KMIA 260300Z 2603/2624 05010KT P6SM VCSH FEW025 BKN060 BKN150
     FM261100 07012G20KT P6SM SCT030 SCT250=



000
FTUS42 KMFL 260300 AAA
TAFFLL
TAF AMD
KFLL 260300Z 2603/2624 05010G20KT P6SM VCSH SCT025 BKN050 BKN120
     FM261000 06014G20KT P6SM SCT030 SCT250=



000
FTUS42 KMFL 260300 AAA
TAFAPF
TAF AMD
KAPF 260300Z 2603/2624 05007KT P6SM SCT250
     FM261400 06010G15KT P6SM SCT040 SCT250=



000
FTUS42 KMFL 260300 AAA
TAFMIA
TAF AMD
KMIA 260300Z 2603/2624 05010KT P6SM VCSH FEW025 BKN060 BKN150
     FM261100 07012G20KT P6SM SCT030 SCT250=



000
FTUS42 KMFL 260300 AAA
TAFPBI
TAF AMD
KPBI 260300Z 2603/2624 05014G22KT P6SM FEW025 BKN050 BKN200
     FM261300 06015G23KT P6SM SCT030 SCT250=



000
FTUS42 KMFL 260300 AAA
TAFFLL
TAF AMD
KFLL 260300Z 2603/2624 05010G20KT P6SM VCSH SCT025 BKN050 BKN120
     FM261000 06014G20KT P6SM SCT030 SCT250=



000
FTUS42 KMFL 252341
TAFAPF
TAF
KAPF 252341Z 2600/2624 05009KT P6SM VCSH SCT035 BKN110 BKN200
     FM260300 05008KT P6SM SCT040 SCT250
     FM261400 06010G15KT P6SM SCT040 SCT250=



000
FTUS42 KMFL 252341
TAFPBI
TAF
KPBI 252341Z 2600/2624 04015G21KT P6SM VCSH SCT028 BKN040 BKN070
     FM260300 06014G22KT P6SM VCSH SCT025 BKN050 BKN250
     FM261300 06015G23KT P6SM SCT030 SCT250=



000
FTUS42 KMFL 252341
TAFMIA
TAF
KMIA 252341Z 2600/2624 VRB10G20KT 4SM SHRA SCT025 BKN035 BKN090
     FM260100 05010G20KT P6SM VCSH SCT025 BKN050 BKN100
     FM260500 06009G15KT P6SM VCSH SCT025 BKN100 BKN200
     FM261400 07012G20KT P6SM SCT030 SCT250=



000
FTUS42 KMFL 252341
TAFFLL
TAF
KFLL 252341Z 2600/2624 05010G20KT P6SM VCSH SCT025 BKN040 BKN090
     FM260300 06010G20KT P6SM VCSH SCT025 BKN050 BKN200
     FM261400 06014G20KT P6SM SCT030 SCT250=



000
FTUS42 KMFL 252341
TAFPBI
TAF
KPBI 252341Z 2600/2624 04015G21KT P6SM VCSH SCT028 BKN040 BKN070
     FM260300 06014G22KT P6SM VCSH SCT025 BKN050 BKN250
     FM261300 06015G23KT P6SM SCT030 SCT250=



000
FTUS42 KMFL 252341
TAFFLL
TAF
KFLL 252341Z 2600/2624 05010G20KT P6SM VCSH SCT025 BKN040 BKN090
     FM260300 06010G20KT P6SM VCSH SCT025 BKN050 BKN200
     FM261400 06014G20KT P6SM SCT030 SCT250=



000
FTUS42 KMFL 252341
TAFMIA
TAF
KMIA 252341Z 2600/2624 VRB10G20KT 4SM SHRA SCT025 BKN035 BKN090
     FM260100 05010G20KT P6SM VCSH SCT025 BKN050 BKN100
     FM260500 06009G15KT P6SM VCSH SCT025 BKN100 BKN200
     FM261400 07012G20KT P6SM SCT030 SCT250=



000
FTUS42 KMFL 252341
TAFAPF
TAF
KAPF 252341Z 2600/2624 05009KT P6SM VCSH SCT035 BKN110 BKN200
     FM260300 05008KT P6SM SCT040 SCT250
     FM261400 06010G15KT P6SM SCT040 SCT250=



000
FTUS42 KMFL 252233 AAB
TAFFLL
TAF AMD
KFLL 252233Z 2523/2618 VRB18G30KT 2SM SHRA SCT020 BKN030 BKN060
     FM252300 05014G25KT P6SM VCSH SCT025 BKN040 BKN250
     FM260300 06012G20KT P6SM VCSH SCT025 SCT050 BKN200
     FM261400 07014G20KT P6SM SCT030 SCT250=



000
FTUS42 KMFL 252233 AAB
TAFFLL
TAF AMD
KFLL 252233Z 2523/2618 VRB18G30KT 2SM SHRA SCT020 BKN030 BKN060
     FM252300 05014G25KT P6SM VCSH SCT025 BKN040 BKN250
     FM260300 06012G20KT P6SM VCSH SCT025 SCT050 BKN200
     FM261400 07014G20KT P6SM SCT030 SCT250=



000
FTUS42 KMFL 252127 AAC
TAFAPF
TAF AMD
KAPF 252127Z 2521/2618 VRB05G10KT P6SM VCSH SCT030 BKN060 BKN110
      TEMPO 2521/2523 6SM -SHRA BKN030 BKN050
     FM260300 05008KT P6SM SCT040 SCT250
     FM261400 06010G15KT P6SM SCT040 SCT250=



000
FTUS42 KMFL 252121 AAA
TAFMIA
TAF AMD
KMIA 252121Z 2521/2618 VRB05G20KT P6SM VCSH SCT028 BKN050 BKN130
     FM260300 06009G15KT P6SM VCSH SCT025 BKN100 BKN200
     FM261400 07012G20KT P6SM SCT030 SCT250=



000
FTUS42 KMFL 252121 AAA
TAFMIA
TAF AMD
KMIA 252121Z 2521/2618 VRB05G20KT P6SM VCSH SCT028 BKN050 BKN130
     FM260300 06009G15KT P6SM VCSH SCT025 BKN100 BKN200
     FM261400 07012G20KT P6SM SCT030 SCT250=



000
FTUS42 KMFL 252114 AAA
TAFFLL
TAF AMD
KFLL 252114Z 2521/2618 05014G25KT P6SM VCSH SCT025 SCT060 BKN250
     FM260300 06012G20KT P6SM VCSH SCT025 SCT050 BKN200
     FM261400 07014G20KT P6SM SCT030 SCT250=



000
FTUS42 KMFL 252108 AAA
TAFPBI
TAF AMD
KPBI 252108Z 2521/2618 04015G27KT P6SM VCSH SCT020 BKN035 BKN060
     FM260300 07014G22KT P6SM VCSH SCT025 BKN050 BKN250
     FM261300 06014G20KT P6SM SCT030 SCT250=



000
FTUS42 KMFL 252108 AAA
TAFPBI
TAF AMD
KPBI 252108Z 2521/2618 04015G27KT P6SM VCSH SCT020 BKN035 BKN060
     FM260300 07014G22KT P6SM VCSH SCT025 BKN050 BKN250
     FM261300 06014G20KT P6SM SCT030 SCT250=



000
FTUS42 KMFL 252027 AAB
TAFAPF
TAF AMD
KAPF 252027Z 2520/2618 VRB15G30KT 2SM SHRA SCT022 BKN030 BKN050
     FM252100 04010G20KT P6SM VCSH SCT035 BKN060
     FM260100 03007KT P6SM SCT040 SCT250=



000
FTUS42 KMFL 252027 AAB
TAFAPF
TAF AMD
KAPF 252027Z 2520/2618 VRB15G30KT 2SM SHRA SCT022 BKN030 BKN050
     FM252100 04010G20KT P6SM VCSH SCT035 BKN060
     FM260100 03007KT P6SM SCT040 SCT250=



000
FTUS42 KMFL 251953 AAA
TAFAPF
TAF AMD
KAPF 251953Z 2520/2618 04010G20KT P6SM VCSH SCT035 BKN060
     FM260100 03007KT P6SM SCT040 SCT250=



000
FTUS42 KMFL 251953 AAA
TAFAPF
TAF AMD
KAPF 251953Z 2520/2618 04010G20KT P6SM VCSH SCT035 BKN060
     FM260100 03007KT P6SM SCT040 SCT250=



000
FTUS42 KMFL 251741
TAFMIA
TAF
KMIA 251741Z 2518/2618 32010G20KT P6SM VCSH SCT025 BKN060
     FM251930 05010G20KT P6SM VCSH SCT025 BKN060
     FM260200 06010G20KT P6SM SCT050 SCT250=



000
FTUS42 KMFL 251741
TAFAPF
TAF
KAPF 251741Z 2518/2618 04008KT P6SM FEW035
     FM252000 05010KT P6SM VCTS SCT030CB BKN250
     FM260100 03007KT P6SM SCT250=



000
FTUS42 KMFL 251741
TAFPBI
TAF
KPBI 251741Z 2518/2618 06010G20KT P6SM VCSH SCT025 BKN060
     FM260200 06010KT P6SM SCT050 SCT250=



000
FTUS42 KMFL 251741
TAFFLL
TAF
KFLL 251741Z 2518/2618 05010G20KT P6SM VCSH SCT025 BKN060
     FM260200 06010KT P6SM SCT050 SCT250=



000
FTUS42 KMFL 251741
TAFPBI
TAF
KPBI 251741Z 2518/2618 06010G20KT P6SM VCSH SCT025 BKN060
     FM260200 06010KT P6SM SCT050 SCT250=



000
FTUS42 KMFL 251741
TAFFLL
TAF
KFLL 251741Z 2518/2618 05010G20KT P6SM VCSH SCT025 BKN060
     FM260200 06010KT P6SM SCT050 SCT250=



000
FTUS42 KMFL 251741
TAFAPF
TAF
KAPF 251741Z 2518/2618 04008KT P6SM FEW035
     FM252000 05010KT P6SM VCTS SCT030CB BKN250
     FM260100 03007KT P6SM SCT250=



000
FTUS42 KMFL 251741
TAFMIA
TAF
KMIA 251741Z 2518/2618 32010G20KT P6SM VCSH SCT025 BKN060
     FM251930 05010G20KT P6SM VCSH SCT025 BKN060
     FM260200 06010G20KT P6SM SCT050 SCT250=



000
FTUS42 KMFL 251507 AAA
TAFAPF
TAF AMD
KAPF 251507Z 2515/2612 06005KT P6SM FEW035
     FM252000 05010KT P6SM VCTS SCT030CB BKN250
     FM260100 03007KT P6SM SCT250=



000
FTUS42 KMFL 251507 AAA
TAFAPF
TAF AMD
KAPF 251507Z 2515/2612 06005KT P6SM FEW035
     FM252000 05010KT P6SM VCTS SCT030CB BKN250
     FM260100 03007KT P6SM SCT250=



000
FTUS42 KMFL 251506 AAA
TAFFLL
TAF AMD
KFLL 251506Z 2515/2612 33006KT P6SM VCSH SCT025 BKN060
     FM251800 05010G20KT P6SM VCTS SCT030CB BKN250
     FM260000 07010KT P6SM SCT050 SCT250=



000
FTUS42 KMFL 251506 AAA
TAFFLL
TAF AMD
KFLL 251506Z 2515/2612 33006KT P6SM VCSH SCT025 BKN060
     FM251800 05010G20KT P6SM VCTS SCT030CB BKN250
     FM260000 07010KT P6SM SCT050 SCT250=



000
FTUS42 KMFL 251506 AAA
TAFMIA
TAF AMD
KMIA 251506Z 2515/2612 34008KT P6SM VCSH SCT025 BKN250
     FM251800 05010G20KT P6SM VCTS SCT030CB BKN250
     FM260000 04006KT P6SM SCT050 SCT250=



000
FTUS42 KMFL 251506 AAA
TAFMIA
TAF AMD
KMIA 251506Z 2515/2612 34008KT P6SM VCSH SCT025 BKN250
     FM251800 05010G20KT P6SM VCTS SCT030CB BKN250
     FM260000 04006KT P6SM SCT050 SCT250=



000
FTUS42 KMFL 251503 AAA
TAFPBI
TAF AMD
KPBI 251503Z 2515/2612 35008KT P6SM VCSH SCT025 BKN060
     FM251800 05010G20KT P6SM VCTS SCT030CB BKN250
     FM260000 06011KT P6SM SCT050 SCT250=



000
FTUS42 KMFL 251503 AAA
TAFPBI
TAF AMD
KPBI 251503Z 2515/2612 35008KT P6SM VCSH SCT025 BKN060
     FM251800 05010G20KT P6SM VCTS SCT030CB BKN250
     FM260000 06011KT P6SM SCT050 SCT250=



000
FTUS42 KMFL 251136
TAFFLL
TAF
KFLL 251136Z 2512/2612 31006KT P6SM VCSH SCT025 BKN060
     FM251800 05010G20KT P6SM VCTS SCT030CB BKN250
     FM260000 07010KT P6SM SCT050 SCT250=



000
FTUS42 KMFL 251136
TAFPBI
TAF
KPBI 251136Z 2512/2612 34007KT P6SM VCSH SCT025 BKN060
     FM251800 05010G20KT P6SM VCTS SCT030CB BKN250
     FM260000 06011KT P6SM SCT050 SCT250=



000
FTUS42 KMFL 251136
TAFMIA
TAF
KMIA 251136Z 2512/2612 32006KT P6SM VCSH FEW025 BKN250
     FM251800 05010G20KT P6SM VCTS SCT030CB BKN250
     FM260000 04006KT P6SM SCT050 SCT250=



000
FTUS42 KMFL 251136
TAFAPF
TAF
KAPF 251136Z 2512/2612 03005KT P6SM FEW250
     FM252000 05010KT P6SM VCTS SCT030 SCT050CB BKN250
     FM260100 03007KT P6SM SCT250=



000
FTUS42 KMFL 251136
TAFMIA
TAF
KMIA 251136Z 2512/2612 32006KT P6SM VCSH FEW025 BKN250
     FM251800 05010G20KT P6SM VCTS SCT030CB BKN250
     FM260000 04006KT P6SM SCT050 SCT250=



000
FTUS42 KMFL 251136
TAFPBI
TAF
KPBI 251136Z 2512/2612 34007KT P6SM VCSH SCT025 BKN060
     FM251800 05010G20KT P6SM VCTS SCT030CB BKN250
     FM260000 06011KT P6SM SCT050 SCT250=



000
FTUS42 KMFL 251136
TAFAPF
TAF
KAPF 251136Z 2512/2612 03005KT P6SM FEW250
     FM252000 05010KT P6SM VCTS SCT030 SCT050CB BKN250
     FM260100 03007KT P6SM SCT250=



000
FTUS42 KMFL 251136
TAFFLL
TAF
KFLL 251136Z 2512/2612 31006KT P6SM VCSH SCT025 BKN060
     FM251800 05010G20KT P6SM VCTS SCT030CB BKN250
     FM260000 07010KT P6SM SCT050 SCT250=



000
FTUS42 KMFL 250840 AAA
TAFPBI
TAF AMD
KPBI 250840Z 2509/2606 33004KT P6SM FEW045 SCT250
     FM251500 05008KT P6SM VCTS SCT030 SCT050CB BKN250
     FM260000 06011KT P6SM SCT050 SCT250=



000
FTUS42 KMFL 250840 AAA
TAFPBI
TAF AMD
KPBI 250840Z 2509/2606 33004KT P6SM FEW045 SCT250
     FM251500 05008KT P6SM VCTS SCT030 SCT050CB BKN250
     FM260000 06011KT P6SM SCT050 SCT250=



000
FTUS42 KMFL 250840 AAA
TAFFLL
TAF AMD
KFLL 250840Z 2509/2606 32003KT P6SM SCT250
     FM251600 05008KT P6SM VCTS SCT030 SCT060CB BKN250
     FM260000 06008KT P6SM SCT050 SCT250=



000
FTUS42 KMFL 250840 AAA
TAFAPF
TAF AMD
KAPF 250840Z 2509/2606 01004KT P6SM SCT040 SCT250
     FM251800 01011KT P6SM VCTS SCT030 SCT050CB BKN250
     FM260000 06007KT P6SM SCT050 SCT250=



000
FTUS42 KMFL 250840 AAA
TAFMIA
TAF AMD
KMIA 250840Z 2509/2606 29003KT P6SM FEW035 SCT250
     FM251700 03007KT P6SM VCTS SCT040 SCT060CB BKN250
     FM260000 06006KT P6SM SCT050 SCT250=



000
FTUS42 KMFL 250840 AAA
TAFMIA
TAF AMD
KMIA 250840Z 2509/2606 29003KT P6SM FEW035 SCT250
     FM251700 03007KT P6SM VCTS SCT040 SCT060CB BKN250
     FM260000 06006KT P6SM SCT050 SCT250=



000
FTUS42 KMFL 250840 AAA
TAFAPF
TAF AMD
KAPF 250840Z 2509/2606 01004KT P6SM SCT040 SCT250
     FM251800 01011KT P6SM VCTS SCT030 SCT050CB BKN250
     FM260000 06007KT P6SM SCT050 SCT250=



000
FTUS42 KMFL 250840 AAA
TAFFLL
TAF AMD
KFLL 250840Z 2509/2606 32003KT P6SM SCT250
     FM251600 05008KT P6SM VCTS SCT030 SCT060CB BKN250
     FM260000 06008KT P6SM SCT050 SCT250=



000
FTUS42 KMFL 250520
TAFMIA
TAF
KMIA 250520Z 2506/2606 00000KT P6SM FEW035 SCT250
     FM251600 03007KT P6SM VCTS SCT040 SCT060CB BKN250
     FM260000 06006KT P6SM SCT050 SCT250=



000
FTUS42 KMFL 250520
TAFFLL
TAF
KFLL 250520Z 2506/2606 00000KT P6SM SCT250
     FM251500 05008KT P6SM VCTS SCT030 SCT060CB BKN250
     FM260000 06008KT P6SM SCT050 SCT250=



000
FTUS42 KMFL 250520
TAFPBI
TAF
KPBI 250520Z 2506/2606 35003KT P6SM FEW035 SCT250
     FM251400 05008KT P6SM VCTS SCT030 SCT050CB BKN250
     FM260000 06011KT P6SM SCT050 SCT250=



000
FTUS42 KMFL 250520
TAFAPF
TAF
KAPF 250520Z 2506/2606 01004KT P6SM SCT040 SCT250
     FM251800 01011KT P6SM VCTS SCT030 SCT050CB BKN250
     FM260000 06007KT P6SM SCT050 SCT250=



000
FTUS42 KMFL 250520
TAFMIA
TAF
KMIA 250520Z 2506/2606 00000KT P6SM FEW035 SCT250
     FM251600 03007KT P6SM VCTS SCT040 SCT060CB BKN250
     FM260000 06006KT P6SM SCT050 SCT250=



000
FTUS42 KMFL 250520
TAFPBI
TAF
KPBI 250520Z 2506/2606 35003KT P6SM FEW035 SCT250
     FM251400 05008KT P6SM VCTS SCT030 SCT050CB BKN250
     FM260000 06011KT P6SM SCT050 SCT250=



000
FTUS42 KMFL 250520
TAFFLL
TAF
KFLL 250520Z 2506/2606 00000KT P6SM SCT250
     FM251500 05008KT P6SM VCTS SCT030 SCT060CB BKN250
     FM260000 06008KT P6SM SCT050 SCT250=



000
FTUS42 KMFL 250520
TAFAPF
TAF
KAPF 250520Z 2506/2606 01004KT P6SM SCT040 SCT250
     FM251800 01011KT P6SM VCTS SCT030 SCT050CB BKN250
     FM260000 06007KT P6SM SCT050 SCT250=



000
FTUS42 KMFL 250258 AAA
TAFMIA
TAF AMD
KMIA 250258Z 2503/2524 04003KT P6SM FEW035 SCT250
     FM251400 03007KT P6SM VCSH SCT040 SCT060 BKN250=



000
FTUS42 KMFL 250258 AAB
TAFAPF
TAF AMD
KAPF 250258Z 2503/2524 33003KT P6SM VCSH SCT060 BKN100 BKN250
      TEMPO 2503/2504 VRB10G20KT 5SM SHRA BKN030 BKN090
     FM250600 VRB03KT P6SM SCT040 SCT250=



000
FTUS42 KMFL 250258 AAA
TAFFLL
TAF AMD
KFLL 250258Z 2503/2524 00000KT P6SM SCT250
     FM251400 05008KT P6SM VCSH SCT030 SCT070 BKN250=



000
FTUS42 KMFL 250258 AAA
TAFPBI
TAF AMD
KPBI 250258Z 2503/2524 03003KT P6SM FEW040 SCT250
     FM251400 05008KT P6SM VCSH SCT030 SCT050 BKN250=



000
FTUS42 KMFL 250258 AAA
TAFMIA
TAF AMD
KMIA 250258Z 2503/2524 04003KT P6SM FEW035 SCT250
     FM251400 03007KT P6SM VCSH SCT040 SCT060 BKN250=



000
FTUS42 KMFL 250258 AAB
TAFAPF
TAF AMD
KAPF 250258Z 2503/2524 33003KT P6SM VCSH SCT060 BKN100 BKN250
      TEMPO 2503/2504 VRB10G20KT 5SM SHRA BKN030 BKN090
     FM250600 VRB03KT P6SM SCT040 SCT250=



000
FTUS42 KMFL 250258 AAA
TAFFLL
TAF AMD
KFLL 250258Z 2503/2524 00000KT P6SM SCT250
     FM251400 05008KT P6SM VCSH SCT030 SCT070 BKN250=



000
FTUS42 KMFL 250258 AAA
TAFPBI
TAF AMD
KPBI 250258Z 2503/2524 03003KT P6SM FEW040 SCT250
     FM251400 05008KT P6SM VCSH SCT030 SCT050 BKN250=



000
FTUS42 KMFL 250159 AAA
TAFAPF
TAF AMD
KAPF 250159Z 2502/2524 VRB10G30KT 4SM TSRA SCT025CB BKN030 BKN060
     FM250230 VRB05KT P6SM VCSH SCT030 BKN100 BKN250
      TEMPO 2503/2504 VRB10G20KT 5SM SHRA BKN030 BKN090
     FM250600 VRB03KT P6SM SCT040 SCT250=



000
FTUS42 KMFL 250159 AAA
TAFAPF
TAF AMD
KAPF 250159Z 2502/2524 VRB10G30KT 4SM TSRA SCT025CB BKN030 BKN060
     FM250230 VRB05KT P6SM VCSH SCT030 BKN100 BKN250
      TEMPO 2503/2504 VRB10G20KT 5SM SHRA BKN030 BKN090
     FM250600 VRB03KT P6SM SCT040 SCT250=



    US Dept of Commerce
    National Oceanic and Atmospheric Administration
    National Weather Service
    1325 East West Highway
    Silver Spring, MD 20910
    Page Author: NWS Internet Services Team
Disclaimer
Information Quality
Credits
Glossary
Privacy Policy
Freedom of Information Act (FOIA)
About Us
Career Opportunities